sensor_id;sensor_type;location;lat;lon;timestamp;pressure;altitude;pressure_sealevel;temperature;humidity
12182;BME280;6154;51.550;12.138;2024-01-15T00:00:34;98708.53;;;5.64;68.85
12182;BME280;6154;51.550;12.138;2024-01-15T00:03:03;98702.16;;;5.54;69.06
12182;BME280;6154;51.550;12.138;2024-01-15T00:05:33;98694.56;;;5.49;69.29
12182;BME280;6154;51.550;12.138;2024-01-15T00:08:00;98697.56;;;5.58;69.15
12182;BME280;6154;51.550;12.138;2024-01-15T00:10:29;98678.56;;;5.54;68.94
12182;BME280;6154;51.550;12.138;2024-01-15T00:12:56;98679.56;;;5.66;68.85
12182;BME280;6154;51.550;12.138;2024-01-15T00:15:24;98682.13;;;5.53;68.78
12182;BME280;6154;51.550;12.138;2024-01-15T00:17:55;98669.44;;;5.60;68.97
12182;BME280;6154;51.550;12.138;2024-01-15T00:20:23;98656.41;;;5.58;68.98
12182;BME280;6154;51.550;12.138;2024-01-15T00:22:56;98658.69;;;5.50;69.02
12182;BME280;6154;51.550;12.138;2024-01-15T00:25:24;98658.09;;;5.59;69.10
12182;BME280;6154;51.550;12.138;2024-01-15T00:27:52;98657.09;;;5.62;68.92
12182;BME280;6154;51.550;12.138;2024-01-15T00:30:20;98666.53;;;5.64;68.90
12182;BME280;6154;51.550;12.138;2024-01-15T00:32:48;98652.00;;;5.73;68.62
12182;BME280;6154;51.550;12.138;2024-01-15T00:35:16;98649.63;;;5.41;68.65
12182;BME280;6154;51.550;12.138;2024-01-15T00:37:44;98642.78;;;5.53;68.79
12182;BME280;6154;51.550;12.138;2024-01-15T00:40:13;98643.75;;;5.65;68.69
12182;BME280;6154;51.550;12.138;2024-01-15T00:42:41;98643.87;;;5.63;68.43
12182;BME280;6154;51.550;12.138;2024-01-15T00:45:10;98629.19;;;5.46;68.77
12182;BME280;6154;51.550;12.138;2024-01-15T00:47:38;98624.25;;;5.42;68.58
12182;BME280;6154;51.550;12.138;2024-01-15T00:50:06;98631.00;;;5.32;68.94
12182;BME280;6154;51.550;12.138;2024-01-15T00:52:35;98630.19;;;5.31;68.96
12182;BME280;6154;51.550;12.138;2024-01-15T00:55:03;98612.81;;;5.43;68.78
12182;BME280;6154;51.550;12.138;2024-01-15T00:57:33;98608.31;;;5.31;69.06
12182;BME280;6154;51.550;12.138;2024-01-15T01:00:01;98599.81;;;5.27;68.98
12182;BME280;6154;51.550;12.138;2024-01-15T01:02:36;98614.13;;;5.36;68.70
12182;BME280;6154;51.550;12.138;2024-01-15T01:05:06;98599.81;;;5.41;68.74
12182;BME280;6154;51.550;12.138;2024-01-15T01:07:51;98602.31;;;5.43;68.84
12182;BME280;6154;51.550;12.138;2024-01-15T01:10:20;98598.19;;;5.39;68.67
12182;BME280;6154;51.550;12.138;2024-01-15T01:12:53;98613.81;;;5.13;68.90
12182;BME280;6154;51.550;12.138;2024-01-15T01:15:22;98612.47;;;5.35;68.71
12182;BME280;6154;51.550;12.138;2024-01-15T01:17:55;98610.31;;;5.27;68.89
12182;BME280;6154;51.550;12.138;2024-01-15T01:20:38;98608.72;;;5.25;68.55
12182;BME280;6154;51.550;12.138;2024-01-15T01:23:08;98614.00;;;5.52;68.60
12182;BME280;6154;51.550;12.138;2024-01-15T01:25:37;98609.09;;;5.33;69.04
12182;BME280;6154;51.550;12.138;2024-01-15T01:28:22;98600.06;;;5.37;68.58
12182;BME280;6154;51.550;12.138;2024-01-15T01:30:53;98612.81;;;5.43;68.61
12182;BME280;6154;51.550;12.138;2024-01-15T01:33:22;98613.00;;;5.40;68.74
12182;BME280;6154;51.550;12.138;2024-01-15T01:35:51;98598.25;;;5.25;68.54
12182;BME280;6154;51.550;12.138;2024-01-15T01:38:27;98597.00;;;5.30;68.67
12182;BME280;6154;51.550;12.138;2024-01-15T01:40:55;98597.28;;;5.26;68.75
12182;BME280;6154;51.550;12.138;2024-01-15T01:43:24;98600.28;;;5.19;68.79
12182;BME280;6154;51.550;12.138;2024-01-15T01:45:55;98586.59;;;5.29;68.67
12182;BME280;6154;51.550;12.138;2024-01-15T01:48:42;98605.91;;;5.28;68.43
12182;BME280;6154;51.550;12.138;2024-01-15T01:51:11;98601.03;;;5.36;68.52
12182;BME280;6154;51.550;12.138;2024-01-15T01:53:47;98593.72;;;5.27;68.62
12182;BME280;6154;51.550;12.138;2024-01-15T01:56:17;98591.22;;;5.25;68.89
12182;BME280;6154;51.550;12.138;2024-01-15T01:58:47;98607.25;;;5.06;68.75
12182;BME280;6154;51.550;12.138;2024-01-15T02:01:16;98587.28;;;5.32;68.58
12182;BME280;6154;51.550;12.138;2024-01-15T02:03:44;98582.41;;;5.26;68.77
12182;BME280;6154;51.550;12.138;2024-01-15T02:06:13;98577.00;;;5.15;68.85
12182;BME280;6154;51.550;12.138;2024-01-15T02:08:43;98579.69;;;5.28;68.89
12182;BME280;6154;51.550;12.138;2024-01-15T02:11:27;98584.13;;;5.40;68.37
12182;BME280;6154;51.550;12.138;2024-01-15T02:13:57;98578.47;;;5.33;68.56
12182;BME280;6154;51.550;12.138;2024-01-15T02:16:25;98586.22;;;5.35;68.40
12182;BME280;6154;51.550;12.138;2024-01-15T02:18:53;98582.97;;;5.31;68.79
12182;BME280;6154;51.550;12.138;2024-01-15T02:21:21;98576.25;;;5.13;68.79
12182;BME280;6154;51.550;12.138;2024-01-15T02:23:50;98581.78;;;5.23;68.74
12182;BME280;6154;51.550;12.138;2024-01-15T02:26:20;98597.75;;;5.32;68.89
12182;BME280;6154;51.550;12.138;2024-01-15T02:28:50;98590.53;;;5.36;69.20
12182;BME280;6154;51.550;12.138;2024-01-15T02:31:19;98595.25;;;5.16;69.37
12182;BME280;6154;51.550;12.138;2024-01-15T02:33:47;98600.41;;;5.18;69.70
12182;BME280;6154;51.550;12.138;2024-01-15T02:36:15;98587.28;;;5.18;69.59
12182;BME280;6154;51.550;12.138;2024-01-15T02:38:44;98582.84;;;4.92;69.69
12182;BME280;6154;51.550;12.138;2024-01-15T02:41:13;98594.72;;;4.97;69.45
12182;BME280;6154;51.550;12.138;2024-01-15T02:43:41;98589.47;;;5.11;69.29
12182;BME280;6154;51.550;12.138;2024-01-15T02:46:09;98585.34;;;5.07;69.18
12182;BME280;6154;51.550;12.138;2024-01-15T02:48:37;98593.97;;;4.95;69.20
12182;BME280;6154;51.550;12.138;2024-01-15T02:51:05;98576.72;;;5.05;68.99
12182;BME280;6154;51.550;12.138;2024-01-15T02:53:35;98586.38;;;5.05;69.01
12182;BME280;6154;51.550;12.138;2024-01-15T02:56:03;98589.38;;;4.99;69.14
12182;BME280;6154;51.550;12.138;2024-01-15T02:58:33;98583.66;;;5.06;68.94
12182;BME280;6154;51.550;12.138;2024-01-15T03:01:01;98586.38;;;4.90;69.17
12182;BME280;6154;51.550;12.138;2024-01-15T03:03:29;98578.13;;;5.11;69.04
12182;BME280;6154;51.550;12.138;2024-01-15T03:05:57;98583.34;;;5.11;69.09
12182;BME280;6154;51.550;12.138;2024-01-15T03:08:25;98586.28;;;5.06;69.00
12182;BME280;6154;51.550;12.138;2024-01-15T03:10:53;98579.34;;;5.05;69.18
12182;BME280;6154;51.550;12.138;2024-01-15T03:13:21;98574.31;;;5.02;69.03
12182;BME280;6154;51.550;12.138;2024-01-15T03:15:50;98579.16;;;5.08;69.06
12182;BME280;6154;51.550;12.138;2024-01-15T03:18:18;98585.13;;;5.10;69.10
12182;BME280;6154;51.550;12.138;2024-01-15T03:20:46;98595.62;;;5.10;68.77
12182;BME280;6154;51.550;12.138;2024-01-15T03:23:14;98599.22;;;4.95;68.85
12182;BME280;6154;51.550;12.138;2024-01-15T03:25:42;98599.84;;;4.99;68.70
12182;BME280;6154;51.550;12.138;2024-01-15T03:28:11;98593.78;;;4.70;68.89
12182;BME280;6154;51.550;12.138;2024-01-15T03:30:39;98588.53;;;4.70;69.07
12182;BME280;6154;51.550;12.138;2024-01-15T03:33:08;98591.44;;;4.94;69.05
12182;BME280;6154;51.550;12.138;2024-01-15T03:35:36;98596.00;;;4.90;68.97
12182;BME280;6154;51.550;12.138;2024-01-15T03:38:04;98599.41;;;4.78;68.94
12182;BME280;6154;51.550;12.138;2024-01-15T03:40:32;98588.19;;;4.76;69.22
12182;BME280;6154;51.550;12.138;2024-01-15T03:43:01;98591.41;;;4.51;69.63
12182;BME280;6154;51.550;12.138;2024-01-15T03:45:29;98583.28;;;4.70;69.62
12182;BME280;6154;51.550;12.138;2024-01-15T03:47:56;98584.13;;;4.70;69.53
12182;BME280;6154;51.550;12.138;2024-01-15T03:50:26;98592.47;;;4.62;69.52
12182;BME280;6154;51.550;12.138;2024-01-15T03:52:54;98591.72;;;4.46;69.68
12182;BME280;6154;51.550;12.138;2024-01-15T03:55:22;98586.19;;;4.51;69.64
12182;BME280;6154;51.550;12.138;2024-01-15T03:57:50;98582.63;;;4.38;69.78
12182;BME280;6154;51.550;12.138;2024-01-15T04:00:18;98593.19;;;4.50;69.61
12182;BME280;6154;51.550;12.138;2024-01-15T04:02:46;98573.56;;;4.57;69.59
12182;BME280;6154;51.550;12.138;2024-01-15T04:05:14;98584.88;;;4.58;69.77
12182;BME280;6154;51.550;12.138;2024-01-15T04:07:44;98587.44;;;4.15;70.19
12182;BME280;6154;51.550;12.138;2024-01-15T04:10:12;98583.50;;;4.52;70.46
12182;BME280;6154;51.550;12.138;2024-01-15T04:12:40;98588.63;;;4.54;70.28
12182;BME280;6154;51.550;12.138;2024-01-15T04:15:08;98565.72;;;4.57;70.58
12182;BME280;6154;51.550;12.138;2024-01-15T04:17:36;98560.47;;;4.57;70.38
12182;BME280;6154;51.550;12.138;2024-01-15T04:20:05;98577.97;;;4.57;70.03
12182;BME280;6154;51.550;12.138;2024-01-15T04:22:34;98562.34;;;4.70;70.03
12182;BME280;6154;51.550;12.138;2024-01-15T04:25:05;98576.84;;;4.75;69.62
12182;BME280;6154;51.550;12.138;2024-01-15T04:27:34;98566.84;;;4.82;69.42
12182;BME280;6154;51.550;12.138;2024-01-15T04:30:02;98563.94;;;4.72;69.14
12182;BME280;6154;51.550;12.138;2024-01-15T04:32:31;98568.13;;;4.89;69.26
12182;BME280;6154;51.550;12.138;2024-01-15T04:34:59;98568.69;;;4.80;69.22
12182;BME280;6154;51.550;12.138;2024-01-15T04:37:28;98551.66;;;4.87;68.75
12182;BME280;6154;51.550;12.138;2024-01-15T04:39:57;98554.28;;;5.01;68.73
12182;BME280;6154;51.550;12.138;2024-01-15T04:42:26;98552.69;;;4.99;68.54
12182;BME280;6154;51.550;12.138;2024-01-15T04:44:54;98536.69;;;4.89;68.62
12182;BME280;6154;51.550;12.138;2024-01-15T04:47:22;98550.72;;;4.88;68.31
12182;BME280;6154;51.550;12.138;2024-01-15T04:49:50;98547.34;;;5.00;68.16
12182;BME280;6154;51.550;12.138;2024-01-15T04:52:18;98543.97;;;5.12;68.19
12182;BME280;6154;51.550;12.138;2024-01-15T04:54:46;98543.97;;;5.12;68.13
12182;BME280;6154;51.550;12.138;2024-01-15T04:57:14;98545.13;;;4.94;68.08
12182;BME280;6154;51.550;12.138;2024-01-15T04:59:44;98538.37;;;4.90;67.68
12182;BME280;6154;51.550;12.138;2024-01-15T05:02:12;98536.94;;;5.13;67.71
12182;BME280;6154;51.550;12.138;2024-01-15T05:04:39;98540.84;;;5.20;67.62
12182;BME280;6154;51.550;12.138;2024-01-15T05:07:08;98534.47;;;5.24;67.26
12182;BME280;6154;51.550;12.138;2024-01-15T05:09:36;98542.44;;;5.23;67.17
12182;BME280;6154;51.550;12.138;2024-01-15T05:12:05;98541.62;;;5.08;66.95
12182;BME280;6154;51.550;12.138;2024-01-15T05:14:33;98540.13;;;5.04;66.75
12182;BME280;6154;51.550;12.138;2024-01-15T05:17:02;98533.84;;;5.06;66.60
12182;BME280;6154;51.550;12.138;2024-01-15T05:19:34;98528.63;;;5.06;66.51
12182;BME280;6154;51.550;12.138;2024-01-15T05:22:03;98536.47;;;5.06;66.76
12182;BME280;6154;51.550;12.138;2024-01-15T05:24:31;98543.81;;;5.01;66.35
12182;BME280;6154;51.550;12.138;2024-01-15T05:26:58;98537.94;;;5.10;66.36
12182;BME280;6154;51.550;12.138;2024-01-15T05:29:27;98544.91;;;5.11;66.37
12182;BME280;6154;51.550;12.138;2024-01-15T05:31:55;98537.19;;;4.81;66.30
12182;BME280;6154;51.550;12.138;2024-01-15T05:34:29;98527.44;;;5.25;66.36
12182;BME280;6154;51.550;12.138;2024-01-15T05:36:57;98515.03;;;5.14;66.50
12182;BME280;6154;51.550;12.138;2024-01-15T05:39:25;98526.59;;;5.24;66.23
12182;BME280;6154;51.550;12.138;2024-01-15T05:41:53;98524.09;;;5.08;65.97
12182;BME280;6154;51.550;12.138;2024-01-15T05:44:21;98515.31;;;5.09;65.97
12182;BME280;6154;51.550;12.138;2024-01-15T05:46:49;98517.16;;;5.22;66.31
12182;BME280;6154;51.550;12.138;2024-01-15T05:49:17;98495.53;;;5.18;65.86
12182;BME280;6154;51.550;12.138;2024-01-15T05:51:46;98509.53;;;5.04;65.91
12182;BME280;6154;51.550;12.138;2024-01-15T05:54:14;98500.72;;;5.05;65.98
12182;BME280;6154;51.550;12.138;2024-01-15T05:56:43;98513.41;;;5.26;66.10
12182;BME280;6154;51.550;12.138;2024-01-15T05:59:10;98515.06;;;5.27;65.99
12182;BME280;6154;51.550;12.138;2024-01-15T06:01:41;98513.09;;;5.03;66.03
12182;BME280;6154;51.550;12.138;2024-01-15T06:04:09;98538.78;;;5.25;65.86
12182;BME280;6154;51.550;12.138;2024-01-15T06:06:38;98524.84;;;5.10;66.06
12182;BME280;6154;51.550;12.138;2024-01-15T06:09:07;98537.94;;;5.25;65.80
12182;BME280;6154;51.550;12.138;2024-01-15T06:11:36;98529.72;;;5.16;65.96
12182;BME280;6154;51.550;12.138;2024-01-15T06:14:03;98530.69;;;5.01;66.12
12182;BME280;6154;51.550;12.138;2024-01-15T06:16:31;98526.34;;;5.14;66.06
12182;BME280;6154;51.550;12.138;2024-01-15T06:18:59;98517.44;;;5.17;66.15
12182;BME280;6154;51.550;12.138;2024-01-15T06:21:28;98525.41;;;5.15;66.43
12182;BME280;6154;51.550;12.138;2024-01-15T06:23:55;98516.66;;;4.88;66.27
12182;BME280;6154;51.550;12.138;2024-01-15T06:26:25;98527.47;;;5.10;66.14
12182;BME280;6154;51.550;12.138;2024-01-15T06:28:53;98533.81;;;5.20;66.27
12182;BME280;6154;51.550;12.138;2024-01-15T06:31:21;98515.88;;;5.14;66.61
12182;BME280;6154;51.550;12.138;2024-01-15T06:33:49;98525.78;;;5.24;66.67
12182;BME280;6154;51.550;12.138;2024-01-15T06:36:17;98533.28;;;5.15;66.78
12182;BME280;6154;51.550;12.138;2024-01-15T06:38:45;98529.91;;;5.13;66.78
12182;BME280;6154;51.550;12.138;2024-01-15T06:41:13;98534.75;;;5.19;66.95
12182;BME280;6154;51.550;12.138;2024-01-15T06:43:43;98541.25;;;5.14;66.84
12182;BME280;6154;51.550;12.138;2024-01-15T06:46:10;98535.28;;;4.98;67.23
12182;BME280;6154;51.550;12.138;2024-01-15T06:48:39;98528.22;;;5.12;66.98
12182;BME280;6154;51.550;12.138;2024-01-15T06:51:07;98527.72;;;4.93;67.43
12182;BME280;6154;51.550;12.138;2024-01-15T06:53:34;98533.91;;;4.78;67.29
12182;BME280;6154;51.550;12.138;2024-01-15T06:56:03;98536.84;;;5.00;67.21
12182;BME280;6154;51.550;12.138;2024-01-15T06:58:31;98529.50;;;4.78;67.37
12182;BME280;6154;51.550;12.138;2024-01-15T07:01:00;98528.66;;;4.92;67.02
12182;BME280;6154;51.550;12.138;2024-01-15T07:03:29;98543.34;;;4.95;67.15
12182;BME280;6154;51.550;12.138;2024-01-15T07:05:57;98533.34;;;4.73;67.14
12182;BME280;6154;51.550;12.138;2024-01-15T07:08:25;98538.56;;;4.87;67.23
12182;BME280;6154;51.550;12.138;2024-01-15T07:10:53;98547.44;;;4.99;67.29
12182;BME280;6154;51.550;12.138;2024-01-15T07:13:21;98546.38;;;5.15;67.10
12182;BME280;6154;51.550;12.138;2024-01-15T07:15:49;98554.75;;;4.94;66.93
12182;BME280;6154;51.550;12.138;2024-01-15T07:18:18;98550.94;;;4.85;67.21
12182;BME280;6154;51.550;12.138;2024-01-15T07:20:46;98553.63;;;4.98;67.42
12182;BME280;6154;51.550;12.138;2024-01-15T07:23:14;98560.78;;;4.81;67.90
12182;BME280;6154;51.550;12.138;2024-01-15T07:25:44;98562.31;;;4.98;67.82
12182;BME280;6154;51.550;12.138;2024-01-15T07:28:12;98570.28;;;4.97;67.21
12182;BME280;6154;51.550;12.138;2024-01-15T07:30:40;98563.84;;;4.88;67.42
12182;BME280;6154;51.550;12.138;2024-01-15T07:33:07;98561.22;;;4.88;67.54
12182;BME280;6154;51.550;12.138;2024-01-15T07:35:37;98567.28;;;4.88;67.56
12182;BME280;6154;51.550;12.138;2024-01-15T07:38:05;98563.09;;;4.86;67.75
12182;BME280;6154;51.550;12.138;2024-01-15T07:40:33;98577.97;;;4.85;67.61
12182;BME280;6154;51.550;12.138;2024-01-15T07:43:01;98583.84;;;4.89;67.65
12182;BME280;6154;51.550;12.138;2024-01-15T07:45:29;98576.94;;;4.88;67.90
12182;BME280;6154;51.550;12.138;2024-01-15T07:47:58;98581.22;;;4.89;67.93
12182;BME280;6154;51.550;12.138;2024-01-15T07:50:26;98566.91;;;4.95;67.95
12182;BME280;6154;51.550;12.138;2024-01-15T07:52:55;98564.56;;;5.04;67.63
12182;BME280;6154;51.550;12.138;2024-01-15T07:55:23;98570.56;;;5.06;67.12
12182;BME280;6154;51.550;12.138;2024-01-15T07:57:51;98568.97;;;5.04;67.27
12182;BME280;6154;51.550;12.138;2024-01-15T08:00:32;98565.69;;;5.00;67.46
12182;BME280;6154;51.550;12.138;2024-01-15T08:03:00;98567.84;;;5.08;67.22
12182;BME280;6154;51.550;12.138;2024-01-15T08:05:29;98567.28;;;5.03;67.09
12182;BME280;6154;51.550;12.138;2024-01-15T08:07:59;98559.87;;;5.09;67.06
12182;BME280;6154;51.550;12.138;2024-01-15T08:10:27;98575.00;;;5.18;67.10
12182;BME280;6154;51.550;12.138;2024-01-15T08:12:55;98578.31;;;5.08;67.06
12182;BME280;6154;51.550;12.138;2024-01-15T08:15:23;98574.34;;;5.29;67.04
12182;BME280;6154;51.550;12.138;2024-01-15T08:17:57;98569.75;;;5.33;66.78
12182;BME280;6154;51.550;12.138;2024-01-15T08:20:25;98577.06;;;5.28;66.68
12182;BME280;6154;51.550;12.138;2024-01-15T08:22:53;98578.22;;;5.24;66.50
12182;BME280;6154;51.550;12.138;2024-01-15T08:25:23;98574.66;;;5.10;66.40
12182;BME280;6154;51.550;12.138;2024-01-15T08:27:52;98569.97;;;5.15;66.79
12182;BME280;6154;51.550;12.138;2024-01-15T08:30:20;98574.00;;;5.07;67.00
12182;BME280;6154;51.550;12.138;2024-01-15T08:32:52;98577.91;;;5.28;67.03
12182;BME280;6154;51.550;12.138;2024-01-15T08:35:20;98580.09;;;5.22;67.08
12182;BME280;6154;51.550;12.138;2024-01-15T08:37:49;98582.09;;;5.31;67.28
12182;BME280;6154;51.550;12.138;2024-01-15T08:40:18;98573.97;;;5.62;67.29
12182;BME280;6154;51.550;12.138;2024-01-15T08:42:47;98577.75;;;5.71;66.86
12182;BME280;6154;51.550;12.138;2024-01-15T08:45:15;98580.72;;;5.79;66.52
12182;BME280;6154;51.550;12.138;2024-01-15T08:47:44;98573.47;;;5.97;66.30
12182;BME280;6154;51.550;12.138;2024-01-15T08:50:11;98580.81;;;5.92;65.51
12182;BME280;6154;51.550;12.138;2024-01-15T08:52:39;98577.25;;;5.93;65.24
12182;BME280;6154;51.550;12.138;2024-01-15T08:55:07;98571.06;;;5.94;65.59
12182;BME280;6154;51.550;12.138;2024-01-15T08:57:35;98568.28;;;6.22;65.28
12182;BME280;6154;51.550;12.138;2024-01-15T09:00:06;98570.13;;;6.20;65.13
12182;BME280;6154;51.550;12.138;2024-01-15T09:02:35;98570.47;;;6.16;64.81
12182;BME280;6154;51.550;12.138;2024-01-15T09:05:04;98560.06;;;6.14;64.79
12182;BME280;6154;51.550;12.138;2024-01-15T09:07:33;98567.44;;;6.22;64.82
12182;BME280;6154;51.550;12.138;2024-01-15T09:10:01;98566.78;;;6.18;64.63
12182;BME280;6154;51.550;12.138;2024-01-15T09:12:29;98574.44;;;6.09;64.31
12182;BME280;6154;51.550;12.138;2024-01-15T09:14:57;98568.75;;;6.02;64.26
12182;BME280;6154;51.550;12.138;2024-01-15T09:17:26;98560.28;;;6.24;64.65
12182;BME280;6154;51.550;12.138;2024-01-15T09:19:55;98567.72;;;6.30;64.67
12182;BME280;6154;51.550;12.138;2024-01-15T09:22:23;98568.50;;;6.45;64.12
12182;BME280;6154;51.550;12.138;2024-01-15T09:24:51;98567.97;;;6.65;64.04
12182;BME280;6154;51.550;12.138;2024-01-15T09:27:19;98571.22;;;6.43;63.68
12182;BME280;6154;51.550;12.138;2024-01-15T09:29:47;98569.94;;;6.49;63.44
12182;BME280;6154;51.550;12.138;2024-01-15T09:32:15;98575.94;;;6.51;63.70
12182;BME280;6154;51.550;12.138;2024-01-15T09:34:45;98572.91;;;6.57;63.62
12182;BME280;6154;51.550;12.138;2024-01-15T09:37:14;98569.75;;;6.52;63.93
12182;BME280;6154;51.550;12.138;2024-01-15T09:40:02;98574.06;;;6.66;63.76
12182;BME280;6154;51.550;12.138;2024-01-15T09:42:31;98583.19;;;6.60;63.83
12182;BME280;6154;51.550;12.138;2024-01-15T09:44:59;98588.66;;;6.57;63.88
12182;BME280;6154;51.550;12.138;2024-01-15T09:47:29;98583.00;;;6.63;63.98
12182;BME280;6154;51.550;12.138;2024-01-15T09:49:58;98575.22;;;6.74;63.45
12182;BME280;6154;51.550;12.138;2024-01-15T09:52:26;98577.09;;;6.72;63.58
12182;BME280;6154;51.550;12.138;2024-01-15T09:54:54;98573.28;;;6.89;63.53
12182;BME280;6154;51.550;12.138;2024-01-15T09:57:23;98569.00;;;6.75;62.69
12182;BME280;6154;51.550;12.138;2024-01-15T09:59:51;98558.28;;;6.78;62.47
12182;BME280;6154;51.550;12.138;2024-01-15T10:02:20;98555.28;;;7.08;62.82
12182;BME280;6154;51.550;12.138;2024-01-15T10:04:49;98559.16;;;7.15;62.46
12182;BME280;6154;51.550;12.138;2024-01-15T10:07:18;98555.69;;;7.15;62.24
12182;BME280;6154;51.550;12.138;2024-01-15T10:09:46;98562.94;;;6.62;61.86
12182;BME280;6154;51.550;12.138;2024-01-15T10:12:15;98556.09;;;7.09;62.21
12182;BME280;6154;51.550;12.138;2024-01-15T10:14:43;98555.75;;;7.26;62.43
12182;BME280;6154;51.550;12.138;2024-01-15T10:17:14;98551.13;;;7.54;62.61
12182;BME280;6154;51.550;12.138;2024-01-15T10:19:42;98563.59;;;7.02;61.47
12182;BME280;6154;51.550;12.138;2024-01-15T10:22:15;98543.38;;;7.39;61.70
12182;BME280;6154;51.550;12.138;2024-01-15T10:24:46;98539.66;;;7.55;61.53
12182;BME280;6154;51.550;12.138;2024-01-15T10:27:15;98543.09;;;7.31;60.38
12182;BME280;6154;51.550;12.138;2024-01-15T10:29:43;98551.50;;;7.36;61.05
12182;BME280;6154;51.550;12.138;2024-01-15T10:32:11;98553.97;;;7.50;60.77
12182;BME280;6154;51.550;12.138;2024-01-15T10:34:40;98562.63;;;7.53;60.43
12182;BME280;6154;51.550;12.138;2024-01-15T10:37:10;98559.50;;;7.35;60.93
12182;BME280;6154;51.550;12.138;2024-01-15T10:39:38;98569.09;;;7.36;61.01
12182;BME280;6154;51.550;12.138;2024-01-15T10:42:08;98562.28;;;7.20;61.27
12182;BME280;6154;51.550;12.138;2024-01-15T10:44:36;98563.81;;;7.12;61.49
12182;BME280;6154;51.550;12.138;2024-01-15T10:47:04;98567.63;;;7.32;62.00
12182;BME280;6154;51.550;12.138;2024-01-15T10:49:32;98558.81;;;6.83;61.66
12182;BME280;6154;51.550;12.138;2024-01-15T10:52:00;98556.19;;;7.20;62.17
12182;BME280;6154;51.550;12.138;2024-01-15T10:54:29;98559.19;;;7.03;61.65
12182;BME280;6154;51.550;12.138;2024-01-15T10:56:58;98551.69;;;7.46;62.60
12182;BME280;6154;51.550;12.138;2024-01-15T10:59:27;98548.94;;;7.47;61.71
12182;BME280;6154;51.550;12.138;2024-01-15T11:01:56;98546.59;;;7.56;60.98
12182;BME280;6154;51.550;12.138;2024-01-15T11:04:24;98556.22;;;7.68;60.81
12182;BME280;6154;51.550;12.138;2024-01-15T11:06:55;98545.97;;;7.52;61.17
12182;BME280;6154;51.550;12.138;2024-01-15T11:09:24;98550.28;;;7.77;61.33
12182;BME280;6154;51.550;12.138;2024-01-15T11:12:06;98553.03;;;7.52;60.64
12182;BME280;6154;51.550;12.138;2024-01-15T11:14:38;98552.19;;;7.75;61.11
12182;BME280;6154;51.550;12.138;2024-01-15T11:17:06;98560.91;;;7.75;60.80
12182;BME280;6154;51.550;12.138;2024-01-15T11:19:36;98552.63;;;7.93;61.68
12182;BME280;6154;51.550;12.138;2024-01-15T11:22:06;98550.16;;;8.14;61.04
12182;BME280;6154;51.550;12.138;2024-01-15T11:24:36;98540.09;;;8.19;60.78
12182;BME280;6154;51.550;12.138;2024-01-15T11:27:03;98545.94;;;8.35;60.87
12182;BME280;6154;51.550;12.138;2024-01-15T11:29:33;98534.72;;;8.20;60.41
12182;BME280;6154;51.550;12.138;2024-01-15T11:32:04;98539.97;;;8.44;61.13
12182;BME280;6154;51.550;12.138;2024-01-15T11:34:56;98542.72;;;8.43;60.23
12182;BME280;6154;51.550;12.138;2024-01-15T11:37:28;98547.03;;;8.44;59.48
12182;BME280;6154;51.550;12.138;2024-01-15T11:40:01;98545.69;;;8.38;59.93
12182;BME280;6154;51.550;12.138;2024-01-15T11:42:31;98536.63;;;8.64;60.10
12182;BME280;6154;51.550;12.138;2024-01-15T11:44:59;98544.75;;;8.61;59.54
12182;BME280;6154;51.550;12.138;2024-01-15T11:47:59;98550.63;;;8.87;59.89
12182;BME280;6154;51.550;12.138;2024-01-15T11:50:34;98547.88;;;8.89;59.78
12182;BME280;6154;51.550;12.138;2024-01-15T11:53:03;98546.78;;;8.80;58.87
12182;BME280;6154;51.550;12.138;2024-01-15T11:55:34;98547.75;;;8.90;59.98
12182;BME280;6154;51.550;12.138;2024-01-15T11:58:07;98541.28;;;9.06;60.29
12182;BME280;6154;51.550;12.138;2024-01-15T12:00:39;98543.69;;;8.98;59.22
12182;BME280;6154;51.550;12.138;2024-01-15T12:03:10;98539.97;;;8.89;59.33
12182;BME280;6154;51.550;12.138;2024-01-15T12:05:38;98548.84;;;8.66;59.81
12182;BME280;6154;51.550;12.138;2024-01-15T12:08:06;98548.88;;;8.30;59.43
12182;BME280;6154;51.550;12.138;2024-01-15T12:10:38;98556.75;;;8.54;60.67
12182;BME280;6154;51.550;12.138;2024-01-15T12:13:10;98552.81;;;8.14;59.74
12182;BME280;6154;51.550;12.138;2024-01-15T12:15:39;98546.53;;;8.39;61.08
12182;BME280;6154;51.550;12.138;2024-01-15T12:18:11;98538.81;;;8.24;60.34
12182;BME280;6154;51.550;12.138;2024-01-15T12:20:41;98540.91;;;8.08;60.61
12182;BME280;6154;51.550;12.138;2024-01-15T12:23:10;98542.38;;;8.12;61.26
12182;BME280;6154;51.550;12.138;2024-01-15T12:25:39;98547.38;;;8.04;62.07
12182;BME280;6154;51.550;12.138;2024-01-15T12:28:07;98543.16;;;8.01;61.26
12182;BME280;6154;51.550;12.138;2024-01-15T12:30:36;98543.78;;;8.05;61.94
12182;BME280;6154;51.550;12.138;2024-01-15T12:33:05;98550.97;;;8.03;61.62
12182;BME280;6154;51.550;12.138;2024-01-15T12:35:36;98554.13;;;7.84;60.72
12182;BME280;6154;51.550;12.138;2024-01-15T12:38:04;98556.88;;;7.83;61.81
12182;BME280;6154;51.550;12.138;2024-01-15T12:40:33;98555.63;;;7.99;62.19
12182;BME280;6154;51.550;12.138;2024-01-15T12:43:03;98547.03;;;7.49;61.00
12182;BME280;6154;51.550;12.138;2024-01-15T12:45:31;98552.13;;;7.64;61.84
12182;BME280;6154;51.550;12.138;2024-01-15T12:47:59;98562.56;;;7.65;61.81
12182;BME280;6154;51.550;12.138;2024-01-15T12:50:28;98557.78;;;7.70;62.25
12182;BME280;6154;51.550;12.138;2024-01-15T12:52:57;98556.75;;;7.60;61.73
12182;BME280;6154;51.550;12.138;2024-01-15T12:55:26;98554.41;;;7.68;61.84
12182;BME280;6154;51.550;12.138;2024-01-15T12:57:54;98554.59;;;7.54;61.69
12182;BME280;6154;51.550;12.138;2024-01-15T13:00:22;98550.19;;;7.55;61.24
12182;BME280;6154;51.550;12.138;2024-01-15T13:02:52;98555.38;;;7.43;61.93
12182;BME280;6154;51.550;12.138;2024-01-15T13:05:22;98554.81;;;7.75;62.42
12182;BME280;6154;51.550;12.138;2024-01-15T13:07:51;98562.00;;;7.73;62.50
12182;BME280;6154;51.550;12.138;2024-01-15T13:10:20;98567.31;;;7.84;62.29
12182;BME280;6154;51.550;12.138;2024-01-15T13:12:51;98566.34;;;7.85;62.25
12182;BME280;6154;51.550;12.138;2024-01-15T13:15:20;98569.56;;;7.54;61.97
12182;BME280;6154;51.550;12.138;2024-01-15T13:17:47;98568.47;;;7.56;61.78
12182;BME280;6154;51.550;12.138;2024-01-15T13:20:16;98555.53;;;7.77;62.26